createdAt,value
2023-03-06T00:00:06.493Z,5.30
2023-03-06T00:02:40.051Z,5.30
2023-03-06T00:05:09.712Z,5.30
2023-03-06T00:07:37.667Z,5.30
2023-03-06T00:10:06.143Z,5.40
2023-03-06T00:12:34.205Z,5.40
2023-03-06T00:15:04.037Z,5.50
2023-03-06T00:17:33.268Z,5.50
2023-03-06T00:20:01.231Z,5.50
2023-03-06T00:22:30.757Z,5.60
2023-03-06T00:24:58.921Z,5.60
2023-03-06T00:27:27.151Z,5.50
2023-03-06T00:29:59.332Z,5.40
2023-03-06T00:32:28.469Z,5.40
2023-03-06T00:34:57.838Z,5.40
2023-03-06T00:37:26.549Z,5.50
2023-03-06T00:39:56.136Z,5.50
2023-03-06T00:42:24.171Z,5.50
2023-03-06T00:44:53.410Z,5.50
2023-03-06T00:47:21.516Z,5.50
2023-03-06T00:49:49.573Z,5.50
2023-03-06T00:52:17.536Z,5.50
2023-03-06T00:54:45.590Z,5.50
2023-03-06T00:57:14.989Z,5.50
2023-03-06T00:59:43.232Z,5.50
2023-03-06T01:02:11.624Z,5.40
2023-03-06T01:04:39.667Z,5.50
2023-03-06T01:07:07.902Z,5.50
2023-03-06T01:09:35.989Z,5.50
2023-03-06T01:12:04.295Z,5.60
2023-03-06T01:14:33.672Z,5.60
2023-03-06T01:17:01.715Z,5.60
2023-03-06T01:19:29.752Z,5.50
2023-03-06T01:21:57.802Z,5.60
2023-03-06T01:24:26.034Z,5.60
2023-03-06T01:26:57.769Z,5.60
2023-03-06T01:29:26.362Z,5.50
2023-03-06T01:31:56.019Z,5.50
2023-03-06T01:34:24.259Z,5.50
2023-03-06T01:36:52.329Z,5.50
2023-03-06T01:39:20.487Z,5.50
2023-03-06T01:41:48.749Z,5.50
2023-03-06T01:44:16.750Z,5.50
2023-03-06T01:46:45.936Z,5.40
2023-03-06T01:49:20.834Z,5.40
2023-03-06T01:51:53.041Z,5.40
2023-03-06T01:54:24.846Z,5.50
2023-03-06T01:56:56.407Z,5.50
2023-03-06T01:59:26.895Z,5.50
2023-03-06T02:01:55.910Z,5.50
2023-03-06T02:04:25.598Z,5.40
2023-03-06T02:06:53.996Z,5.40
2023-03-06T02:09:22.184Z,5.40
2023-03-06T02:11:52.152Z,5.50
2023-03-06T02:14:20.190Z,5.50
2023-03-06T02:16:49.095Z,5.50
2023-03-06T02:19:31.792Z,5.50
2023-03-06T02:22:00.428Z,5.50
2023-03-06T02:24:38.082Z,5.40
2023-03-06T02:27:09.034Z,5.40
2023-03-06T02:29:37.209Z,5.40
2023-03-06T02:32:05.841Z,5.40
2023-03-06T02:34:56.649Z,5.40
2023-03-06T02:37:26.810Z,5.20
2023-03-06T02:40:02.879Z,5.20
2023-03-06T02:42:32.482Z,5.20
2023-03-06T02:45:02.845Z,5.20
2023-03-06T02:47:31.007Z,5.20
2023-03-06T02:49:59.017Z,5.20
2023-03-06T02:52:27.076Z,5.20
2023-03-06T02:54:55.114Z,5.20
2023-03-06T02:57:23.154Z,5.20
2023-03-06T02:59:52.536Z,5.10
2023-03-06T03:02:20.650Z,5.10
2023-03-06T03:04:48.671Z,5.10
2023-03-06T03:07:18.332Z,5.10
2023-03-06T03:09:47.116Z,5.10
2023-03-06T03:12:15.143Z,5.10
2023-03-06T03:14:43.139Z,5.10
2023-03-06T03:17:12.576Z,5.10
2023-03-06T03:19:40.710Z,5.10
2023-03-06T03:22:08.837Z,5.20
2023-03-06T03:24:36.922Z,5.20
2023-03-06T03:27:05.914Z,5.20
2023-03-06T03:29:34.000Z,5.20
2023-03-06T03:32:02.121Z,5.10
2023-03-06T03:34:31.670Z,5.10
2023-03-06T03:36:59.746Z,5.20
2023-03-06T03:39:27.850Z,5.20
2023-03-06T03:41:55.978Z,5.20
2023-03-06T03:44:24.165Z,5.20
2023-03-06T03:46:52.518Z,5.20
2023-03-06T03:49:23.663Z,5.20
2023-03-06T03:51:53.742Z,5.10
2023-03-06T03:54:23.240Z,5.10
2023-03-06T03:56:53.863Z,4.90
2023-03-06T03:59:26.878Z,4.90
2023-03-06T04:02:05.464Z,4.90
2023-03-06T04:04:38.944Z,4.90
2023-03-06T04:07:09.244Z,4.80
2023-03-06T04:09:38.267Z,4.80
2023-03-06T04:12:07.075Z,4.80
2023-03-06T04:14:37.311Z,4.90
2023-03-06T04:17:06.237Z,4.90
2023-03-06T04:19:34.838Z,4.90
2023-03-06T04:22:03.304Z,4.90
2023-03-06T04:24:34.917Z,4.90
2023-03-06T04:27:03.957Z,4.90
2023-03-06T04:29:32.298Z,4.90
2023-03-06T04:32:00.360Z,4.90
2023-03-06T04:34:28.428Z,5.00
2023-03-06T04:36:56.590Z,5.10
2023-03-06T04:39:25.041Z,5.10
2023-03-06T04:41:54.451Z,5.20
2023-03-06T04:44:22.721Z,5.20
2023-03-06T04:46:50.752Z,5.20
2023-03-06T04:49:18.792Z,5.30
2023-03-06T04:51:46.764Z,5.20
2023-03-06T04:54:14.768Z,5.20
2023-03-06T04:56:42.765Z,5.20
2023-03-06T04:59:12.171Z,5.20
2023-03-06T05:01:40.184Z,5.20
2023-03-06T05:04:08.442Z,5.10
2023-03-06T05:06:36.483Z,5.10
2023-03-06T05:09:04.808Z,5.20
2023-03-06T05:11:32.823Z,5.20
2023-03-06T05:14:01.455Z,5.20
2023-03-06T05:16:30.939Z,5.20
2023-03-06T05:18:59.018Z,5.20
2023-03-06T05:21:27.020Z,5.30
2023-03-06T05:23:55.027Z,5.30
2023-03-06T05:26:23.026Z,5.20
2023-03-06T05:28:51.007Z,5.20
2023-03-06T05:31:19.196Z,5.20
2023-03-06T05:33:48.547Z,5.20
2023-03-06T05:36:16.529Z,5.10
2023-03-06T05:38:44.554Z,5.10
2023-03-06T05:41:13.947Z,5.10
2023-03-06T05:43:42.199Z,5.10
2023-03-06T05:46:11.994Z,5.10
2023-03-06T05:48:40.466Z,5.10
2023-03-06T05:51:11.819Z,5.00
2023-03-06T05:53:39.881Z,5.10
2023-03-06T05:56:09.839Z,5.10
2023-03-06T05:58:38.587Z,5.10
2023-03-06T06:01:11.301Z,5.10
2023-03-06T06:03:39.601Z,5.10
2023-03-06T06:06:10.649Z,5.20
2023-03-06T06:08:39.023Z,5.20
2023-03-06T06:11:07.803Z,5.20
2023-03-06T06:13:36.118Z,5.10
2023-03-06T06:16:08.297Z,5.10
2023-03-06T06:18:37.280Z,5.20
2023-03-06T06:21:07.192Z,5.20
2023-03-06T06:23:36.607Z,5.20
2023-03-06T06:26:07.495Z,5.20
2023-03-06T06:28:35.555Z,5.20
2023-03-06T06:31:09.993Z,5.30
2023-03-06T06:33:38.015Z,5.20
2023-03-06T06:36:06.623Z,5.20
2023-03-06T06:38:35.977Z,5.20
2023-03-06T06:41:33.484Z,5.20
2023-03-06T06:43:54.287Z,5.10
2023-03-06T06:47:02.687Z,5.10
2023-03-06T06:49:10.595Z,5.00
2023-03-06T06:51:39.441Z,5.00
2023-03-06T06:54:09.537Z,4.90
2023-03-06T06:56:37.515Z,5.10
2023-03-06T06:59:16.160Z,5.20
2023-03-06T07:01:45.549Z,5.20
2023-03-06T07:04:14.524Z,5.20
2023-03-06T07:06:43.068Z,5.20
2023-03-06T07:09:13.209Z,5.20
2023-03-06T07:11:41.493Z,5.20
2023-03-06T07:14:09.734Z,5.30
2023-03-06T07:16:37.710Z,5.30
2023-03-06T07:19:05.716Z,5.20
2023-03-06T07:21:34.054Z,5.30
2023-03-06T07:24:02.060Z,5.30
2023-03-06T07:26:34.390Z,5.30
2023-03-06T07:29:03.437Z,5.30
2023-03-06T07:31:31.943Z,5.30
2023-03-06T07:34:00.842Z,5.20
2023-03-06T07:36:29.596Z,5.20
2023-03-06T07:38:57.632Z,5.20
2023-03-06T07:41:25.695Z,5.20
2023-03-06T07:43:55.065Z,5.20
2023-03-06T07:46:23.094Z,5.20
2023-03-06T07:48:51.162Z,5.40
2023-03-06T07:51:21.416Z,5.40
2023-03-06T07:53:50.214Z,5.40
2023-03-06T07:56:18.321Z,5.40
2023-03-06T07:58:48.254Z,5.40
2023-03-06T08:01:19.696Z,5.30
2023-03-06T08:03:49.075Z,5.30
2023-03-06T08:06:19.935Z,5.40
2023-03-06T08:08:48.967Z,5.40
2023-03-06T08:11:18.465Z,5.40
2023-03-06T08:13:48.264Z,5.50
2023-03-06T08:16:18.254Z,5.50
2023-03-06T08:18:46.704Z,5.40
2023-03-06T08:21:16.580Z,5.30
2023-03-06T08:23:45.441Z,5.30
2023-03-06T08:26:15.125Z,5.30
2023-03-06T08:28:43.961Z,5.20
2023-03-06T08:31:14.239Z,5.30
2023-03-06T08:33:43.759Z,5.40
2023-03-06T08:36:11.867Z,5.50
2023-03-06T08:38:39.941Z,5.60
2023-03-06T08:41:08.077Z,5.70
2023-03-06T08:43:36.292Z,5.70
2023-03-06T08:46:04.463Z,5.80
2023-03-06T08:48:32.621Z,5.80
2023-03-06T08:51:02.013Z,5.80
2023-03-06T08:53:42.094Z,5.70
2023-03-06T08:56:16.695Z,5.70
2023-03-06T08:58:44.795Z,5.60
2023-03-06T09:01:15.476Z,5.60
2023-03-06T09:03:43.622Z,5.70
2023-03-06T09:06:13.433Z,5.60
2023-03-06T09:08:44.313Z,5.60
2023-03-06T09:11:12.682Z,5.70
2023-03-06T09:13:40.775Z,5.70
2023-03-06T09:16:09.520Z,5.80
2023-03-06T09:18:37.918Z,5.80
2023-03-06T09:21:06.812Z,5.80
2023-03-06T09:23:37.078Z,5.80
2023-03-06T09:26:05.293Z,5.80
2023-03-06T09:28:33.410Z,5.70
2023-03-06T09:31:02.615Z,5.80
2023-03-06T09:33:31.561Z,5.90
2023-03-06T09:35:59.962Z,6.00
2023-03-06T09:38:29.429Z,6.10
2023-03-06T09:43:38.870Z,6.20
2023-03-06T09:46:20.977Z,6.30
2023-03-06T09:49:02.290Z,6.30
2023-03-06T09:51:40.338Z,6.20
2023-03-06T09:54:14.277Z,6.20
2023-03-06T09:56:49.763Z,6.20
2023-03-06T09:59:21.383Z,6.10
2023-03-06T10:02:01.059Z,6.10
2023-03-06T10:04:37.948Z,6.10
2023-03-06T10:07:15.300Z,6.10
2023-03-06T10:09:49.136Z,6.20
2023-03-06T10:12:28.490Z,6.20
2023-03-06T10:15:11.722Z,6.30
2023-03-06T10:17:42.090Z,6.50
2023-03-06T10:20:18.911Z,6.50
2023-03-06T10:23:01.087Z,6.60
2023-03-06T10:25:34.517Z,6.60
2023-03-06T10:28:13.158Z,6.70
2023-03-06T10:30:45.937Z,6.60
2023-03-06T10:33:29.588Z,6.50
2023-03-06T10:35:58.263Z,6.50
2023-03-06T10:38:27.653Z,6.50
2023-03-06T10:41:06.464Z,6.50
2023-03-06T10:43:36.780Z,6.50
2023-03-06T10:46:06.534Z,6.40
2023-03-06T10:48:37.063Z,6.40
2023-03-06T10:51:19.008Z,6.40
2023-03-06T10:53:54.355Z,6.30
2023-03-06T10:56:31.386Z,6.30
2023-03-06T10:59:13.633Z,6.40
2023-03-06T11:01:43.643Z,6.20
2023-03-06T11:04:29.504Z,6.20
2023-03-06T11:07:13.479Z,6.20
2023-03-06T11:09:42.816Z,6.30
2023-03-06T11:12:28.542Z,6.30
2023-03-06T11:15:18.398Z,6.30
2023-03-06T11:17:52.512Z,6.30
2023-03-06T11:20:24.367Z,6.30
2023-03-06T11:22:56.363Z,6.40
2023-03-06T11:25:30.930Z,6.30
2023-03-06T11:28:03.372Z,6.20
2023-03-06T11:30:40.056Z,6.20
2023-03-06T11:33:18.144Z,6.10
2023-03-06T11:35:57.882Z,6.10
2023-03-06T11:38:33.812Z,6.10
2023-03-06T11:41:06.695Z,6.10
2023-03-06T11:43:41.540Z,6.20
2023-03-06T11:46:17.637Z,6.20
2023-03-06T11:48:51.250Z,6.30
2023-03-06T11:51:23.421Z,6.40
2023-03-06T11:53:51.614Z,6.30
2023-03-06T11:56:34.262Z,6.30
2023-03-06T11:59:31.554Z,6.30
2023-03-06T12:02:12.245Z,6.30
2023-03-06T12:04:51.181Z,6.40
2023-03-06T12:07:31.166Z,6.40
2023-03-06T12:10:10.571Z,6.40
2023-03-06T12:13:07.820Z,6.40
2023-03-06T12:15:52.726Z,6.20
2023-03-06T12:18:36.847Z,6.20
2023-03-06T12:21:08.740Z,6.20
2023-03-06T12:24:09.105Z,6.20
2023-03-06T12:26:59.943Z,6.30
2023-03-06T12:29:47.245Z,6.30
2023-03-06T12:32:25.906Z,6.30
2023-03-06T12:35:16.202Z,6.30
2023-03-06T12:37:57.107Z,6.20
2023-03-06T12:40:43.001Z,6.20
2023-03-06T12:43:48.816Z,6.30
2023-03-06T12:46:18.823Z,6.20
2023-03-06T12:48:55.118Z,6.10
2023-03-06T12:51:25.341Z,6.10
2023-03-06T12:53:54.364Z,6.10
2023-03-06T12:56:23.002Z,6.10
2023-03-06T12:58:53.075Z,6.10
2023-03-06T13:01:56.576Z,6.10
2023-03-06T13:04:49.602Z,6.10
2023-03-06T13:07:30.034Z,6.10
2023-03-06T13:10:10.281Z,6.10
2023-03-06T13:12:49.864Z,6.10
2023-03-06T13:15:37.773Z,6.10
2023-03-06T13:18:46.776Z,6.10
2023-03-06T13:22:03.079Z,6.20
2023-03-06T13:24:34.587Z,6.20
2023-03-06T13:27:05.812Z,6.20
2023-03-06T13:29:53.502Z,6.30
2023-03-06T13:32:31.704Z,6.30
2023-03-06T13:34:59.814Z,6.30
2023-03-06T13:37:50.905Z,6.30
2023-03-06T13:40:32.545Z,6.20
2023-03-06T13:43:21.818Z,6.20
2023-03-06T13:45:51.753Z,6.10
2023-03-06T13:48:43.659Z,6.00
2023-03-06T13:51:17.121Z,6.00
2023-03-06T13:54:08.300Z,5.90
2023-03-06T13:56:57.276Z,5.80
2023-03-06T14:00:08.332Z,5.80
2023-03-06T14:02:57.899Z,5.70
2023-03-06T14:05:35.693Z,5.70
2023-03-06T14:08:11.042Z,5.80
2023-03-06T14:10:40.215Z,5.80
2023-03-06T14:13:17.262Z,5.90
2023-03-06T14:15:47.750Z,6.00
2023-03-06T14:18:20.579Z,6.00
2023-03-06T14:20:53.265Z,6.00
2023-03-06T14:23:29.838Z,6.00
2023-03-06T14:26:15.180Z,6.10
2023-03-06T14:28:46.070Z,6.10
2023-03-06T14:31:18.043Z,6.20
2023-03-06T14:33:52.600Z,6.20
2023-03-06T14:36:22.639Z,6.30
2023-03-06T14:38:54.421Z,6.40
2023-03-06T14:41:37.084Z,6.40
2023-03-06T14:44:19.158Z,6.60
2023-03-06T14:46:48.772Z,6.60
2023-03-06T14:49:18.091Z,6.60
2023-03-06T14:51:48.578Z,6.50
2023-03-06T14:54:20.539Z,6.40
2023-03-06T14:56:51.678Z,6.30
2023-03-06T14:59:26.167Z,6.30
2023-03-06T15:02:00.250Z,6.30
2023-03-06T15:04:35.074Z,6.30
2023-03-06T15:07:05.299Z,6.40
2023-03-06T15:09:36.012Z,6.40
2023-03-06T15:12:07.087Z,6.40
2023-03-06T15:14:39.133Z,6.40
2023-03-06T15:17:23.369Z,6.50
2023-03-06T15:19:54.154Z,6.70
2023-03-06T15:22:30.927Z,6.70
2023-03-06T15:25:22.440Z,6.80
2023-03-06T15:27:52.711Z,6.70
2023-03-06T15:30:29.043Z,6.80
2023-03-06T15:33:23.371Z,6.80
2023-03-06T15:35:57.033Z,6.80
2023-03-06T15:38:30.902Z,6.90
2023-03-06T15:41:00.431Z,7.00
2023-03-06T15:43:29.878Z,7.00
2023-03-06T15:46:01.597Z,7.00
2023-03-06T15:48:29.621Z,6.90
2023-03-06T15:50:57.750Z,6.90
2023-03-06T15:53:25.921Z,7.00
2023-03-06T15:55:54.665Z,7.00
2023-03-06T15:58:26.614Z,7.00
2023-03-06T16:00:54.755Z,7.00
2023-03-06T16:03:24.201Z,7.10
2023-03-06T16:05:52.260Z,7.00
2023-03-06T16:08:20.339Z,7.00
2023-03-06T16:10:49.796Z,6.90
2023-03-06T16:13:23.389Z,6.90
2023-03-06T16:15:51.839Z,6.90
2023-03-06T16:18:20.179Z,6.90
2023-03-06T16:20:50.675Z,6.90
2023-03-06T16:23:18.700Z,6.80
2023-03-06T16:25:49.242Z,6.80
2023-03-06T16:28:17.576Z,6.80
2023-03-06T16:30:46.201Z,6.70
2023-03-06T16:33:15.227Z,6.70
2023-03-06T16:35:46.446Z,6.70
2023-03-06T16:38:16.628Z,6.70
2023-03-06T16:40:44.939Z,6.60
2023-03-06T16:43:15.973Z,6.70
2023-03-06T16:45:44.771Z,6.70
2023-03-06T16:48:17.119Z,6.60
2023-03-06T16:50:45.886Z,6.60
2023-03-06T16:53:16.040Z,6.70
2023-03-06T16:55:44.134Z,6.70
2023-03-06T16:58:12.184Z,6.60
2023-03-06T17:00:40.303Z,6.50
2023-03-06T17:03:08.420Z,6.60
2023-03-06T17:05:38.021Z,6.50
2023-03-06T17:08:06.255Z,6.50
2023-03-06T17:10:35.836Z,6.50
2023-03-06T17:13:05.046Z,6.50
2023-03-06T17:15:33.134Z,6.50
2023-03-06T17:18:01.335Z,6.50
2023-03-06T17:20:29.489Z,6.50
2023-03-06T17:22:57.539Z,6.50
2023-03-06T17:25:25.696Z,6.50
2023-03-06T17:27:55.096Z,6.50
2023-03-06T17:30:23.271Z,6.50
2023-03-06T17:32:51.305Z,6.50
2023-03-06T17:35:19.567Z,6.50
2023-03-06T17:37:47.643Z,6.40
2023-03-06T17:40:16.498Z,6.40
2023-03-06T17:42:44.701Z,6.40
2023-03-06T17:45:14.213Z,6.40
2023-03-06T17:47:42.217Z,6.30
2023-03-06T17:50:11.727Z,6.40
2023-03-06T17:52:39.839Z,6.30
2023-03-06T17:55:09.008Z,6.30
2023-03-06T17:57:37.056Z,6.30
2023-03-06T18:00:06.441Z,6.30
2023-03-06T18:02:41.496Z,6.30
2023-03-06T18:05:10.514Z,6.30
2023-03-06T18:07:39.120Z,6.30
2023-03-06T18:10:07.649Z,6.30
2023-03-06T18:12:35.666Z,6.30
2023-03-06T18:15:03.821Z,6.30
2023-03-06T18:17:31.901Z,6.30
2023-03-06T18:20:01.320Z,6.20
2023-03-06T18:22:29.344Z,6.20
2023-03-06T18:24:57.401Z,6.30
2023-03-06T18:27:25.488Z,6.30
2023-03-06T18:29:55.475Z,6.30
2023-03-06T18:32:24.167Z,6.30
2023-03-06T18:34:52.243Z,6.30
2023-03-06T18:37:21.690Z,6.30
2023-03-06T18:39:49.793Z,6.30
2023-03-06T18:42:18.461Z,6.30
2023-03-06T18:44:48.211Z,6.30
2023-03-06T18:47:16.394Z,6.30
2023-03-06T18:49:46.057Z,6.20
2023-03-06T18:52:14.332Z,6.30
2023-03-06T18:54:43.839Z,6.30
2023-03-06T18:57:12.181Z,6.30
2023-03-06T18:59:40.250Z,6.30
2023-03-06T19:02:08.604Z,6.30
2023-03-06T19:04:38.030Z,6.30
2023-03-06T19:07:06.372Z,6.30
2023-03-06T19:09:34.447Z,6.30
2023-03-06T19:12:04.182Z,6.30
2023-03-06T19:14:32.238Z,6.30
2023-03-06T19:17:00.235Z,6.20
2023-03-06T19:19:29.328Z,6.30
2023-03-06T19:21:59.121Z,6.30
2023-03-06T19:24:27.498Z,6.30
2023-03-06T19:26:55.568Z,6.30
2023-03-06T19:29:24.967Z,6.30
2023-03-06T19:31:53.081Z,6.40
2023-03-06T19:34:21.223Z,6.40
2023-03-06T19:36:51.121Z,6.40
2023-03-06T19:39:19.221Z,6.40
2023-03-06T19:41:47.899Z,6.40
2023-03-06T19:44:16.356Z,6.40
2023-03-06T19:46:45.891Z,6.40
2023-03-06T19:49:21.670Z,6.40
2023-03-06T19:51:49.761Z,6.30
2023-03-06T19:54:18.176Z,6.30
2023-03-06T19:56:46.254Z,6.30
2023-03-06T19:59:14.254Z,6.30
2023-03-06T20:01:42.429Z,6.30
2023-03-06T20:04:11.879Z,6.30
2023-03-06T20:06:39.952Z,6.30
2023-03-06T20:09:09.805Z,6.30
2023-03-06T20:11:38.650Z,6.40
2023-03-06T20:14:08.665Z,6.40
2023-03-06T20:16:37.547Z,6.30
2023-03-06T20:19:05.906Z,6.30
2023-03-06T20:21:37.811Z,6.40
2023-03-06T20:24:07.087Z,6.40
2023-03-06T20:26:36.712Z,6.40
2023-03-06T20:29:05.086Z,6.30
2023-03-06T20:31:33.225Z,6.30
2023-03-06T20:34:01.305Z,6.30
2023-03-06T20:36:31.155Z,6.30
2023-03-06T20:39:03.060Z,6.30
2023-03-06T20:41:32.880Z,6.30
2023-03-06T20:44:02.158Z,6.30
2023-03-06T20:46:30.927Z,6.30
2023-03-06T20:48:59.600Z,6.30
2023-03-06T20:51:30.160Z,6.30
2023-03-06T20:53:59.037Z,6.40
2023-03-06T20:56:30.683Z,6.30
2023-03-06T20:58:59.627Z,6.30
2023-03-06T21:01:29.130Z,6.20
2023-03-06T21:03:58.405Z,6.10
2023-03-06T21:06:28.103Z,6.10
2023-03-06T21:08:56.773Z,6.10
2023-03-06T21:11:25.370Z,6.00
2023-03-06T21:13:55.540Z,6.00
2023-03-06T21:16:27.600Z,6.00
2023-03-06T21:18:56.958Z,6.00
2023-03-06T21:21:28.774Z,5.80
2023-03-06T21:23:57.588Z,5.80
2023-03-06T21:26:27.877Z,5.80
2023-03-06T21:28:59.108Z,5.80
2023-03-06T21:31:28.314Z,5.70
2023-03-06T21:33:57.052Z,5.70
2023-03-06T21:36:26.117Z,5.70
2023-03-06T21:38:55.183Z,5.70
2023-03-06T21:41:25.204Z,5.80
2023-03-06T21:43:57.177Z,5.80
2023-03-06T21:46:25.245Z,5.70
2023-03-06T21:48:53.306Z,5.70
2023-03-06T21:51:23.517Z,5.80
2023-03-06T21:53:53.252Z,5.80
2023-03-06T21:56:25.293Z,5.80
2023-03-06T21:58:53.831Z,5.80
2023-03-06T22:01:24.912Z,5.90
2023-03-06T22:03:53.244Z,5.80
2023-03-06T22:06:23.898Z,5.80
2023-03-06T22:08:52.131Z,5.80
2023-03-06T22:11:21.891Z,5.90
2023-03-06T22:13:50.917Z,5.80
2023-03-06T22:16:20.688Z,5.90
2023-03-06T22:18:51.406Z,5.90
2023-03-06T22:21:21.212Z,5.90
2023-03-06T22:23:50.357Z,6.00
2023-03-06T22:26:18.600Z,6.00
2023-03-06T22:28:46.962Z,6.00
2023-03-06T22:31:17.473Z,6.00
2023-03-06T22:33:46.026Z,6.00
2023-03-06T22:36:16.568Z,6.00
2023-03-06T22:38:46.564Z,6.00
2023-03-06T22:41:16.562Z,6.10
2023-03-06T22:43:44.735Z,6.10
2023-03-06T22:46:14.100Z,6.10
2023-03-06T22:48:42.803Z,6.10
2023-03-06T22:51:13.467Z,6.10
2023-03-06T22:53:43.479Z,6.10
2023-03-06T22:56:13.742Z,6.10
2023-03-06T22:58:41.737Z,6.10
2023-03-06T23:01:11.450Z,6.10
2023-03-06T23:03:41.493Z,6.10
2023-03-06T23:06:10.947Z,6.10
2023-03-06T23:08:39.032Z,6.20
2023-03-06T23:11:11.320Z,6.20
2023-03-06T23:13:58.684Z,6.20
2023-03-06T23:16:45.343Z,6.10
2023-03-06T23:19:32.184Z,6.10
2023-03-06T23:22:18.606Z,6.10
2023-03-06T23:25:05.978Z,6.10
2023-03-06T23:27:36.763Z,6.10
2023-03-06T23:30:05.832Z,6.10
2023-03-06T23:32:34.251Z,6.00
2023-03-06T23:35:02.330Z,5.90
2023-03-06T23:37:30.469Z,5.90
2023-03-06T23:39:58.747Z,5.90
2023-03-06T23:42:26.862Z,5.90
2023-03-06T23:44:56.232Z,5.80
2023-03-06T23:47:24.290Z,5.80
2023-03-06T23:49:52.350Z,5.80
2023-03-06T23:52:20.479Z,5.90
2023-03-06T23:54:50.013Z,5.90
2023-03-06T23:57:18.050Z,6.00
2023-03-06T23:59:46.168Z,6.00
